Time;durP1;ratioP1;P1;durP2;ratioP2;P2;SDS_P1;SDS_P2;PMS_P1;PMS_P2;Temp;Humidity;BMP_temperature;BMP_pressure;BME280_temperature;BME280_humidity;BME280_pressure;Samples;Min_cycle;Max_cycle;Signal;HPM_P1;HPM_P2
2022/08/24 00:01:21;;;;;;;15.63;5.03;;;22.40;99.90;;;;;;5083430;28;20238;-75
2022/08/24 00:03:48;;;;;;;12.70;4.90;;;22.30;99.90;;;;;;5088749;28;20182;-75
2022/08/24 00:06:20;;;;;;;10.70;4.60;;;22.30;99.90;;;;;;5086556;28;20223;-75
2022/08/24 00:08:49;;;;;;;18.58;5.60;;;22.30;99.90;;;;;;5084696;28;20206;-75
2022/08/24 00:11:16;;;;;;;13.73;5.00;;;22.30;99.90;;;;;;5083589;28;20194;-75
2022/08/24 00:13:44;;;;;;;14.38;5.43;;;22.20;99.90;;;;;;5084406;28;20262;-75
2022/08/24 00:16:11;;;;;;;11.50;4.93;;;22.20;99.90;;;;;;5119822;27;20193;-75
2022/08/24 00:18:38;;;;;;;10.85;4.80;;;22.20;99.90;;;;;;5101559;28;20280;-75
2022/08/24 00:21:07;;;;;;;16.47;6.13;;;22.20;99.90;;;;;;5090960;28;20650;-75
2022/08/24 00:23:34;;;;;;;12.97;4.90;;;22.20;99.90;;;;;;5086702;28;20189;-75
2022/08/24 00:26:03;;;;;;;15.38;5.60;;;22.20;99.90;;;;;;5059505;28;20568;-75
2022/08/24 00:28:30;;;;;;;12.93;5.60;;;22.20;99.90;;;;;;5085338;28;20221;-75
2022/08/24 00:30:56;;;;;;;15.67;4.83;;;22.20;99.90;;;;;;5120082;27;20211;-75
2022/08/24 00:33:22;;;;;;;13.45;5.13;;;22.20;99.90;;;;;;5069094;28;20212;-75
2022/08/24 00:35:49;;;;;;;13.30;4.88;;;22.20;99.90;;;;;;5080970;28;20673;-76
2022/08/24 00:38:15;;;;;;;14.50;5.40;;;22.20;99.90;;;;;;5081586;28;20279;-75
2022/08/24 00:40:47;;;;;;;15.40;5.68;;;22.20;99.90;;;;;;5086800;28;20205;-76
2022/08/24 00:43:20;;;;;;;14.85;4.90;;;22.20;99.90;;;;;;5084480;28;20251;-76
2022/08/24 00:46:21;;;;;;;14.73;4.55;;;22.10;99.90;;;;;;5118463;27;20612;-75
2022/08/24 00:49:03;;;;;;;12.68;5.35;;;22.10;99.90;;;;;;5078774;28;20279;-75
2022/08/24 00:51:42;;;;;;;13.25;5.05;;;22.10;99.90;;;;;;5117038;27;20201;-75
2022/08/24 00:54:15;;;;;;;14.87;4.90;;;22.10;99.90;;;;;;5087366;28;20654;-75
2022/08/24 00:56:50;;;;;;;14.53;5.00;;;22.10;99.90;;;;;;5086530;28;20189;-76
2022/08/24 00:59:24;;;;;;;15.07;5.07;;;22.10;99.90;;;;;;5116844;27;20178;-75
2022/08/24 01:01:53;;;;;;;10.38;4.70;;;22.00;99.90;;;;;;5086131;28;20285;-75
2022/08/24 01:04:44;;;;;;;15.35;5.40;;;22.00;99.90;;;;;;5116024;27;20272;-75
2022/08/24 01:07:12;;;;;;;18.27;5.17;;;22.00;99.90;;;;;;5087876;28;20216;-76
2022/08/24 01:09:38;;;;;;;14.93;5.10;;;22.00;99.90;;;;;;5070024;28;20181;-75
2022/08/24 01:12:05;;;;;;;13.37;4.97;;;22.00;99.90;;;;;;5088860;28;20178;-75
2022/08/24 01:14:31;;;;;;;14.03;5.03;;;22.00;99.90;;;;;;5084084;28;20175;-75
2022/08/24 01:19:49;;;;;;;14.45;5.07;;;22.00;99.90;;;;;;5096913;28;20181;-75
2022/08/24 01:22:59;;;;;;;14.20;5.10;;;22.00;99.90;;;;;;5094473;28;20597;-75
2022/08/24 01:25:30;;;;;;;12.50;5.03;;;22.00;99.90;;;;;;5076998;28;20930;-75
2022/08/24 01:28:04;;;;;;;13.82;5.30;;;22.00;99.90;;;;;;5099933;28;20197;-75
2022/08/24 01:30:31;;;;;;;13.47;5.10;;;22.00;99.90;;;;;;5079152;28;20241;-75
2022/08/24 01:33:05;;;;;;;15.02;5.13;;;22.00;99.90;;;;;;5081375;28;20193;-75
2022/08/24 01:35:32;;;;;;;15.23;5.40;;;22.00;99.90;;;;;;5069041;28;20184;-75
2022/08/24 01:38:03;;;;;;;16.37;6.07;;;22.00;99.90;;;;;;5083391;28;20193;-75
2022/08/24 01:40:49;;;;;;;12.13;5.03;;;22.00;99.90;;;;;;5087540;28;20862;-75
2022/08/24 01:43:16;;;;;;;16.03;5.80;;;21.90;99.90;;;;;;5082840;28;20197;-75
2022/08/24 01:45:44;;;;;;;12.47;4.93;;;21.90;99.90;;;;;;5074806;28;20197;-75
2022/08/24 01:48:12;;;;;;;18.90;5.40;;;21.90;99.90;;;;;;5086799;28;20210;-75
2022/08/24 01:50:39;;;;;;;18.43;6.07;;;21.90;99.90;;;;;;5088412;28;20214;-75
2022/08/24 01:53:06;;;;;;;17.65;5.22;;;21.90;99.90;;;;;;5090132;28;20189;-75
2022/08/24 01:55:34;;;;;;;16.00;5.75;;;21.80;99.90;;;;;;5082597;28;20596;-75
2022/08/24 01:58:02;;;;;;;14.02;5.20;;;21.90;99.90;;;;;;5106682;28;20239;-75
2022/08/24 02:00:29;;;;;;;15.03;5.37;;;21.80;99.90;;;;;;5089002;28;20178;-75
2022/08/24 02:02:56;;;;;;;10.68;5.32;;;21.80;99.90;;;;;;5086358;28;20790;-75
2022/08/24 02:05:24;;;;;;;12.57;5.25;;;21.80;99.90;;;;;;5082173;28;20279;-75
2022/08/24 02:07:52;;;;;;;17.43;5.30;;;21.80;99.90;;;;;;5090092;28;20858;-76
2022/08/24 02:10:19;;;;;;;10.20;5.17;;;21.80;99.90;;;;;;5080781;28;20543;-75
2022/08/24 02:12:56;;;;;;;13.97;5.80;;;21.80;99.90;;;;;;5114913;27;20189;-75
2022/08/24 02:15:31;;;;;;;13.50;5.37;;;21.80;99.90;;;;;;5114172;27;20209;-75
2022/08/24 02:17:58;;;;;;;12.97;5.03;;;21.80;99.90;;;;;;5084522;28;20656;-75
2022/08/24 02:20:25;;;;;;;10.50;5.38;;;21.80;99.90;;;;;;5092144;28;20713;-75
2022/08/24 02:22:53;;;;;;;13.03;5.87;;;21.80;99.90;;;;;;5091739;28;20194;-75
2022/08/24 02:25:20;;;;;;;12.30;4.60;;;21.90;99.90;;;;;;5087821;28;20232;-75
2022/08/24 02:27:47;;;;;;;15.33;5.83;;;21.80;99.90;;;;;;5121408;27;20194;-75
2022/08/24 02:30:14;;;;;;;15.43;5.18;;;21.80;99.90;;;;;;5107482;28;20190;-75
2022/08/24 02:32:41;;;;;;;16.40;4.87;;;21.90;99.90;;;;;;5078000;28;20174;-75
2022/08/24 02:35:09;;;;;;;15.88;5.40;;;21.90;99.90;;;;;;5110477;28;20200;-75
2022/08/24 02:37:36;;;;;;;15.43;5.87;;;21.90;99.90;;;;;;5110908;28;20234;-75
2022/08/24 02:40:06;;;;;;;14.77;5.27;;;21.90;99.90;;;;;;5110997;28;20227;-75
2022/08/24 02:42:33;;;;;;;13.43;5.32;;;21.80;99.90;;;;;;5108552;28;20264;-75
2022/08/24 02:45:01;;;;;;;19.15;5.20;;;21.80;99.90;;;;;;5112208;28;20518;-75
2022/08/24 02:47:28;;;;;;;13.87;5.23;;;21.80;99.90;;;;;;5100623;28;20664;-75
2022/08/24 02:49:56;;;;;;;12.07;4.75;;;21.70;99.90;;;;;;5073535;28;20190;-75
2022/08/24 02:52:23;;;;;;;15.63;5.70;;;21.70;99.90;;;;;;5070152;28;20197;-73
2022/08/24 02:54:50;;;;;;;16.15;4.85;;;21.80;99.90;;;;;;5094183;28;20197;-73
2022/08/24 02:57:16;;;;;;;11.25;5.25;;;21.80;99.90;;;;;;5110651;28;20632;-75
2022/08/24 02:59:44;;;;;;;14.18;5.07;;;21.80;99.90;;;;;;5083448;28;20183;-74
2022/08/24 03:02:14;;;;;;;17.92;5.90;;;21.80;99.90;;;;;;5112607;27;20201;-75
2022/08/24 03:04:40;;;;;;;16.27;5.70;;;21.80;99.90;;;;;;5090016;28;20711;-75
2022/08/24 03:07:07;;;;;;;11.40;5.37;;;21.80;99.90;;;;;;5089739;28;20206;-73
2022/08/24 03:09:33;;;;;;;14.93;5.20;;;21.80;99.90;;;;;;5072593;28;20682;-76
2022/08/24 03:11:59;;;;;;;15.70;5.55;;;21.80;99.90;;;;;;5089838;28;20179;-76
2022/08/24 03:14:26;;;;;;;16.65;5.70;;;21.80;99.90;;;;;;5091409;28;20330;-74
2022/08/24 03:16:52;;;;;;;10.00;5.40;;;21.80;99.90;;;;;;5082432;28;20247;-75
2022/08/24 03:19:19;;;;;;;11.47;5.30;;;21.80;99.90;;;;;;5122629;27;20815;-75
2022/08/24 03:21:45;;;;;;;13.32;5.40;;;21.80;99.90;;;;;;5071568;28;20210;-75
2022/08/24 03:24:12;;;;;;;17.77;5.67;;;21.80;99.90;;;;;;5086082;28;20197;-75
2022/08/24 03:26:38;;;;;;;14.03;6.00;;;21.80;99.90;;;;;;5081346;28;20264;-75
2022/08/24 03:29:05;;;;;;;15.10;5.33;;;21.80;99.90;;;;;;5070206;28;20205;-75
2022/08/24 03:31:32;;;;;;;11.37;4.83;;;21.90;99.90;;;;;;5115873;27;20223;-75
2022/08/24 03:33:58;;;;;;;15.73;5.23;;;21.80;99.90;;;;;;5089471;28;20174;-75
2022/08/24 03:36:24;;;;;;;11.18;5.22;;;21.80;99.90;;;;;;5104136;28;20187;-75
2022/08/24 03:38:52;;;;;;;14.27;5.38;;;21.80;99.90;;;;;;5080170;28;20793;-75
2022/08/24 03:41:19;;;;;;;15.97;5.43;;;21.80;99.90;;;;;;5087850;28;20182;-75
2022/08/24 03:43:45;;;;;;;13.47;6.10;;;21.80;99.90;;;;;;5090877;28;20186;-75
2022/08/24 03:46:16;;;;;;;16.63;6.17;;;21.90;99.90;;;;;;5070798;28;20190;-75
2022/08/24 03:48:46;;;;;;;14.13;5.57;;;21.80;99.90;;;;;;5090779;28;20701;-75
2022/08/24 03:51:21;;;;;;;14.68;5.65;;;21.80;99.90;;;;;;5071271;28;20178;-75
2022/08/24 03:53:48;;;;;;;13.77;6.15;;;21.80;99.90;;;;;;5112544;27;20190;-75
2022/08/24 03:56:15;;;;;;;11.18;5.43;;;21.80;99.90;;;;;;5086165;28;20183;-75
2022/08/24 03:58:42;;;;;;;12.13;5.20;;;21.80;99.90;;;;;;5087522;28;20654;-76
2022/08/24 04:01:10;;;;;;;12.73;5.40;;;21.90;99.90;;;;;;5071559;28;20178;-75
2022/08/24 04:03:46;;;;;;;13.43;5.63;;;21.90;99.90;;;;;;5106450;28;20190;-75
2022/08/24 04:06:16;;;;;;;13.23;5.63;;;21.90;99.90;;;;;;5090768;28;20234;-75
2022/08/24 04:08:44;;;;;;;11.60;5.57;;;21.90;99.90;;;;;;5085875;28;20232;-75
2022/08/24 04:11:17;;;;;;;11.25;5.35;;;21.90;99.90;;;;;;5093056;28;20264;-75
2022/08/24 04:13:45;;;;;;;12.10;5.72;;;22.00;99.90;;;;;;5126259;27;20184;-75
2022/08/24 04:16:16;;;;;;;16.65;6.30;;;22.00;99.90;;;;;;5084582;28;20179;-75
2022/08/24 04:18:43;;;;;;;17.92;5.63;;;22.00;99.90;;;;;;5087283;28;20198;-75
2022/08/24 04:21:19;;;;;;;9.10;5.00;;;22.00;99.90;;;;;;5093409;28;20178;-75
2022/08/24 04:23:49;;;;;;;11.57;5.47;;;22.00;99.90;;;;;;5093916;28;20185;-75
2022/08/24 04:26:19;;;;;;;14.17;5.97;;;22.00;99.90;;;;;;5090280;28;20201;-75
2022/08/24 04:28:46;;;;;;;14.27;5.70;;;22.10;99.90;;;;;;5122338;27;20241;-75
2022/08/24 04:31:13;;;;;;;11.03;5.30;;;22.10;99.90;;;;;;5071777;28;20181;-75
2022/08/24 04:33:41;;;;;;;9.33;5.27;;;22.10;99.90;;;;;;5118999;27;20230;-75
2022/08/24 04:36:10;;;;;;;10.73;5.27;;;22.00;99.90;;;;;;5104836;28;20212;-75
2022/08/24 04:38:37;;;;;;;19.02;6.30;;;22.10;99.90;;;;;;5116186;27;20185;-75
2022/08/24 04:41:07;;;;;;;11.95;6.07;;;22.10;99.90;;;;;;5087355;28;20659;-75
2022/08/24 04:43:34;;;;;;;13.70;6.07;;;22.00;99.90;;;;;;5080378;28;20539;-75
2022/08/24 04:46:07;;;;;;;15.63;6.25;;;22.10;99.90;;;;;;5072566;28;20189;-75
2022/08/24 04:48:35;;;;;;;14.07;5.47;;;22.10;99.90;;;;;;5099269;28;20208;-75
2022/08/24 04:51:07;;;;;;;13.45;6.07;;;22.10;99.90;;;;;;5065335;28;20210;-75
2022/08/24 04:53:35;;;;;;;15.97;5.70;;;22.10;99.90;;;;;;5088869;28;20215;-75
2022/08/24 04:56:02;;;;;;;14.40;5.97;;;22.10;99.90;;;;;;5117815;27;20197;-75
2022/08/24 04:58:30;;;;;;;14.32;5.88;;;22.20;99.90;;;;;;5071279;28;20178;-76
2022/08/24 05:00:56;;;;;;;17.48;6.65;;;22.20;99.90;;;;;;5087968;28;20201;-75
2022/08/24 05:03:27;;;;;;;14.30;6.18;;;22.30;99.90;;;;;;5083583;28;20182;-75
2022/08/24 05:05:56;;;;;;;16.90;6.28;;;22.40;99.90;;;;;;5064099;28;20190;-75
2022/08/24 05:08:23;;;;;;;14.07;6.28;;;22.40;99.90;;;;;;5069253;28;20216;-75
2022/08/24 05:10:50;;;;;;;14.20;6.77;;;22.50;99.90;;;;;;5082756;28;20190;-75
2022/08/24 05:13:18;;;;;;;10.50;5.85;;;22.50;99.90;;;;;;5082371;28;20186;-75
2022/08/24 05:15:47;;;;;;;12.55;6.18;;;22.50;99.90;;;;;;5083062;28;20188;-75
2022/08/24 05:18:16;;;;;;;15.03;6.83;;;22.60;99.90;;;;;;5087802;28;20201;-75
2022/08/24 05:20:45;;;;;;;15.82;6.22;;;22.70;99.90;;;;;;5081853;28;20191;-76
2022/08/24 05:23:13;;;;;;;16.45;6.32;;;22.70;99.90;;;;;;5088192;28;20531;-75
2022/08/24 05:25:41;;;;;;;15.80;6.20;;;22.80;99.90;;;;;;5124775;27;20261;-76
2022/08/24 05:28:08;;;;;;;19.52;6.47;;;22.80;99.90;;;;;;5093070;28;20244;-76
2022/08/24 05:30:36;;;;;;;13.98;5.63;;;23.00;99.90;;;;;;5081907;28;20191;-76
2022/08/24 05:33:03;;;;;;;15.38;5.78;;;23.00;99.90;;;;;;5108629;28;20570;-76
2022/08/24 05:35:29;;;;;;;20.23;6.20;;;23.00;99.90;;;;;;5091970;28;20178;-76
2022/08/24 05:37:56;;;;;;;13.55;5.88;;;23.00;99.90;;;;;;5124967;27;20331;-75
2022/08/24 05:40:22;;;;;;;13.60;6.03;;;23.10;99.90;;;;;;5084853;28;20193;-76
2022/08/24 05:42:49;;;;;;;16.25;6.20;;;23.20;99.90;;;;;;5119487;27;20197;-76
2022/08/24 05:45:15;;;;;;;13.73;5.88;;;23.20;99.90;;;;;;5091827;28;20187;-76
2022/08/24 05:47:42;;;;;;;12.30;5.63;;;23.20;99.90;;;;;;5108543;28;20209;-75
2022/08/24 05:50:08;;;;;;;17.58;6.57;;;23.30;99.90;;;;;;5087171;28;20187;-76
2022/08/24 05:52:35;;;;;;;18.33;6.05;;;23.30;99.90;;;;;;5074891;28;20193;-76
2022/08/24 05:55:03;;;;;;;19.33;6.38;;;23.30;99.90;;;;;;5124753;27;20193;-75
2022/08/24 05:57:34;;;;;;;12.77;5.35;;;23.40;99.90;;;;;;5089075;28;20189;-76
2022/08/24 06:00:02;;;;;;;13.10;5.75;;;23.50;99.90;;;;;;5074530;28;20183;-75
2022/08/24 06:02:28;;;;;;;12.70;5.53;;;23.50;99.90;;;;;;5095278;28;20687;-76
2022/08/24 06:04:55;;;;;;;10.80;5.25;;;23.50;99.90;;;;;;5074385;28;20178;-75
2022/08/24 06:07:21;;;;;;;15.05;5.65;;;23.50;99.90;;;;;;5108336;28;20229;-76
2022/08/24 06:09:48;;;;;;;14.00;5.60;;;23.60;99.90;;;;;;5087270;28;20239;-76
2022/08/24 06:12:15;;;;;;;10.65;5.05;;;23.60;99.90;;;;;;5108247;28;20242;-76
2022/08/24 06:14:46;;;;;;;12.77;4.55;;;23.70;99.90;;;;;;5104258;28;20186;-76
2022/08/24 06:17:13;;;;;;;11.57;5.10;;;23.80;99.90;;;;;;5099878;28;20193;-76
2022/08/24 06:19:42;;;;;;;9.30;5.25;;;23.80;99.90;;;;;;5087116;28;20277;-76
2022/08/24 06:22:09;;;;;;;8.20;4.75;;;23.90;99.90;;;;;;5125116;27;20262;-76
2022/08/24 06:27:22;;;;;;;14.60;5.55;;;24.10;99.90;;;;;;5084532;28;20555;-76
2022/08/24 06:29:58;;;;;;;12.02;5.03;;;24.20;99.90;;;;;;5108043;28;20205;-76
2022/08/24 06:32:28;;;;;;;12.25;5.05;;;24.20;99.90;;;;;;5068075;28;20178;-76
2022/08/24 06:34:59;;;;;;;17.20;5.80;;;24.30;99.90;;;;;;5120190;27;20186;-76
2022/08/24 06:37:26;;;;;;;10.95;5.07;;;24.40;99.90;;;;;;5070964;28;20186;-76
2022/08/24 06:39:55;;;;;;;13.65;5.38;;;24.50;99.90;;;;;;5088010;28;20265;-75
2022/08/24 06:42:28;;;;;;;17.02;5.43;;;24.50;99.90;;;;;;5108013;28;20212;-76
2022/08/24 06:44:54;;;;;;;11.57;4.95;;;24.60;99.90;;;;;;5123825;27;20182;-76
2022/08/24 06:47:21;;;;;;;14.88;5.22;;;24.70;99.90;;;;;;5116721;27;20249;-76
2022/08/24 06:49:48;;;;;;;7.93;4.60;;;24.70;99.90;;;;;;5084854;28;20194;-76
2022/08/24 06:52:14;;;;;;;10.07;4.93;;;24.80;99.90;;;;;;5088409;28;20301;-76
2022/08/24 06:54:40;;;;;;;15.75;4.90;;;24.90;99.90;;;;;;5089386;28;20193;-76
2022/08/24 06:57:08;;;;;;;18.10;5.30;;;24.90;99.90;;;;;;5089217;28;20214;-76
2022/08/24 06:59:35;;;;;;;24.23;5.20;;;25.00;99.90;;;;;;5066891;28;20352;-76
2022/08/24 07:02:07;;;;;;;15.30;4.70;;;25.00;99.90;;;;;;5093054;28;20193;-76
2022/08/24 07:04:34;;;;;;;15.13;5.13;;;25.10;99.90;;;;;;5088208;28;20635;-76
2022/08/24 07:07:00;;;;;;;13.55;4.20;;;25.20;99.90;;;;;;5103973;28;20190;-76
2022/08/24 07:09:31;;;;;;;14.93;5.03;;;25.20;99.90;;;;;;5110131;28;20276;-76
2022/08/24 07:12:00;;;;;;;17.85;4.90;;;25.30;99.90;;;;;;5127673;27;20177;-76
2022/08/24 07:14:28;;;;;;;13.63;5.00;;;25.40;99.90;;;;;;5096758;28;20196;-76
2022/08/24 07:16:55;;;;;;;14.45;5.03;;;25.40;99.90;;;;;;5075279;28;20193;-76
2022/08/24 07:19:22;;;;;;;13.05;4.55;;;25.50;99.90;;;;;;5101249;28;20213;-76
2022/08/24 07:21:48;;;;;;;9.98;4.50;;;25.60;99.90;;;;;;5113743;27;20217;-75
2022/08/24 07:24:15;;;;;;;8.95;4.25;;;25.80;99.90;;;;;;5064993;28;20189;-75
2022/08/24 07:26:41;;;;;;;12.00;4.35;;;25.90;99.90;;;;;;5078886;28;20198;-75
2022/08/24 07:29:14;;;;;;;13.13;4.38;;;26.00;99.90;;;;;;5113136;27;20217;-75
2022/08/24 07:31:51;;;;;;;13.00;4.55;;;26.10;99.90;;;;;;5119330;27;20277;-75
2022/08/24 07:34:21;;;;;;;11.85;4.30;;;26.00;99.90;;;;;;5077725;28;20642;-73
2022/08/24 07:36:49;;;;;;;18.60;4.85;;;26.00;99.90;;;;;;5088017;28;20191;-73
2022/08/24 07:39:16;;;;;;;12.57;4.18;;;26.10;99.90;;;;;;5086674;28;20198;-75
2022/08/24 07:41:44;;;;;;;13.57;4.22;;;26.20;99.90;;;;;;5092806;28;20269;-74
2022/08/24 07:44:14;;;;;;;11.05;4.43;;;26.30;99.90;;;;;;5080386;28;20265;-75
2022/08/24 07:46:42;;;;;;;15.90;4.30;;;26.30;99.90;;;;;;5076386;28;20185;-74
2022/08/24 07:49:12;;;;;;;7.80;3.25;;;26.30;99.90;;;;;;5105662;27;20609;-76
2022/08/24 07:51:39;;;;;;;12.50;3.70;;;26.40;99.90;;;;;;5118406;27;20635;-75
2022/08/24 07:54:06;;;;;;;13.68;3.90;;;26.40;99.90;;;;;;5072166;28;20178;-75
2022/08/24 07:56:33;;;;;;;11.90;4.05;;;26.50;99.90;;;;;;5096383;28;20177;-75
2022/08/24 07:59:00;;;;;;;10.45;3.65;;;26.60;99.90;;;;;;5090214;28;20721;-76
2022/08/24 08:01:26;;;;;;;12.05;4.20;;;26.60;99.90;;;;;;5114214;27;20283;-75
2022/08/24 08:03:52;;;;;;;10.13;3.95;;;26.70;99.90;;;;;;5086445;28;20517;-75
2022/08/24 08:06:19;;;;;;;10.82;3.67;;;26.80;99.90;;;;;;5082499;28;20189;-73
2022/08/24 08:08:45;;;;;;;11.40;3.75;;;26.80;99.90;;;;;;5118886;27;20209;-75
2022/08/24 08:11:12;;;;;;;6.65;3.08;;;26.90;99.90;;;;;;5072467;28;20603;-72
2022/08/24 08:13:39;;;;;;;11.07;4.00;;;27.00;99.90;;;;;;5091047;28;20186;-72
2022/08/24 08:16:06;;;;;;;13.05;3.67;;;27.10;99.90;;;;;;5086891;28;20610;-73
2022/08/24 08:18:33;;;;;;;12.65;3.85;;;27.20;99.90;;;;;;5087768;28;20197;-75
2022/08/24 08:21:03;;;;;;;9.77;3.58;;;27.30;99.90;;;;;;5078320;28;20198;-75
2022/08/24 08:26:19;;;;;;;9.40;3.00;;;27.50;99.90;;;;;;5078006;28;20186;-75
2022/08/24 08:28:46;;;;;;;16.27;3.30;;;27.70;99.90;;;;;;5079501;28;20209;-75
2022/08/24 08:31:12;;;;;;;10.95;3.58;;;27.70;99.90;;;;;;5086925;28;20273;-75
2022/08/24 08:33:39;;;;;;;10.82;3.63;;;27.70;99.90;;;;;;5083580;28;20186;-75
2022/08/24 08:36:12;;;;;;;12.07;3.17;;;27.80;99.90;;;;;;5088228;28;20212;-75
2022/08/24 08:38:43;;;;;;;13.20;3.47;;;27.80;99.90;;;;;;5117601;27;20186;-75
2022/08/24 08:41:16;;;;;;;12.27;3.20;;;28.10;99.90;;;;;;5068936;28;20212;-75
2022/08/24 08:43:56;;;;;;;11.95;3.28;;;28.10;99.90;;;;;;5084205;28;20187;-75
2022/08/24 08:46:49;;;;;;;13.52;3.30;;;28.20;99.90;;;;;;5080538;28;20669;-76
2022/08/24 08:49:41;;;;;;;16.85;3.50;;;28.40;99.90;;;;;;5077023;28;20329;-76
2022/08/24 08:52:28;;;;;;;15.15;2.92;;;28.30;99.90;;;;;;5076650;28;20202;-74
2022/08/24 08:55:25;;;;;;;11.02;3.28;;;28.40;99.90;;;;;;5062742;28;20183;-76
2022/08/24 08:57:59;;;;;;;9.68;3.00;;;28.50;99.90;;;;;;5104816;27;20309;-75
2022/08/24 09:01:00;;;;;;;12.10;2.97;;;28.50;99.90;;;;;;5079407;28;20177;-75
2022/08/24 09:04:16;;;;;;;9.73;3.20;;;28.60;99.90;;;;;;5084695;28;20196;-76
2022/08/24 09:07:29;;;;;;;11.45;3.28;;;28.70;99.90;;;;;;5107570;27;20285;-75
2022/08/24 09:10:31;;;;;;;10.80;2.85;;;28.70;99.90;;;;;;5108772;27;20200;-74
2022/08/24 09:13:44;;;;;;;9.68;2.97;;;28.70;99.90;;;;;;5082243;28;20230;-78
2022/08/24 09:16:58;;;;;;;12.07;3.17;;;28.70;99.90;;;;;;5022965;28;20246;-76
2022/08/24 09:19:40;;;;;;;12.13;3.67;;;28.90;99.90;;;;;;5092545;28;20186;-75
2022/08/24 09:22:17;;;;;;;9.82;2.80;;;29.10;99.90;;;;;;5067114;28;20205;-75
2022/08/24 09:24:52;;;;;;;11.18;3.33;;;29.00;99.90;;;;;;5087997;28;20278;-73
2022/08/24 09:27:56;;;;;;;17.83;3.30;;;29.00;99.90;;;;;;5073797;28;20213;-76
2022/08/24 09:30:34;;;;;;;14.35;3.00;;;29.10;99.90;;;;;;5098629;28;20185;-76
2022/08/24 09:33:20;;;;;;;14.30;3.00;;;29.30;99.90;;;;;;5079697;28;20280;-75
2022/08/24 09:36:07;;;;;;;10.88;3.20;;;29.30;99.90;;;;;;5084700;28;20273;-75
2022/08/24 09:39:05;;;;;;;9.57;2.90;;;29.20;99.90;;;;;;5108393;27;20277;-75
2022/08/24 09:41:52;;;;;;;12.55;2.92;;;29.30;99.90;;;;;;5075175;28;20205;-77
2022/08/24 09:45:12;;;;;;;12.18;3.22;;;29.30;99.90;;;;;;5080685;28;20189;-76
2022/08/24 09:48:09;;;;;;;13.13;3.03;;;29.30;99.90;;;;;;5047563;28;20226;-76
2022/08/24 09:51:10;;;;;;;13.25;3.30;;;29.50;99.90;;;;;;5085154;28;20285;-76
2022/08/24 09:54:11;;;;;;;13.15;2.88;;;29.80;99.90;;;;;;5081928;28;20589;-77
2022/08/24 09:56:48;;;;;;;13.07;2.90;;;29.90;99.90;;;;;;5081378;28;20195;-76
2022/08/24 10:00:10;;;;;;;16.08;2.80;;;29.90;99.90;;;;;;5105422;28;20182;-76
2022/08/24 10:03:04;;;;;;;11.43;2.85;;;29.90;99.90;;;;;;5064562;28;20801;-76
2022/08/24 10:05:58;;;;;;;9.70;2.67;;;29.80;99.90;;;;;;5077434;28;20187;-76
2022/08/24 10:09:07;;;;;;;10.48;3.00;;;30.10;99.90;;;;;;5051396;28;20614;-76
2022/08/24 10:12:16;;;;;;;8.77;2.75;;;30.20;99.90;;;;;;5050302;28;20210;-78
2022/08/24 10:14:57;;;;;;;13.93;3.08;;;30.30;99.90;;;;;;5072883;28;20194;-77
2022/08/24 10:17:45;;;;;;;10.93;3.00;;;30.30;99.90;;;;;;5067268;28;20214;-76
2022/08/24 10:20:24;;;;;;;13.20;2.90;;;30.40;99.90;;;;;;5068722;28;20540;-76
2022/08/24 10:23:07;;;;;;;13.85;2.65;;;30.40;99.90;;;;;;5082965;28;20186;-77
2022/08/24 10:26:08;;;;;;;16.33;3.40;;;30.50;99.90;;;;;;5078717;28;20278;-78
2022/08/24 10:29:38;;;;;;;8.32;2.50;;;30.60;99.90;;;;;;5067483;28;20223;-76
2022/08/24 10:32:21;;;;;;;8.40;2.50;;;30.60;99.90;;;;;;5083033;28;20204;-76
2022/08/24 10:35:29;;;;;;;10.55;2.63;;;30.60;99.90;;;;;;5079291;28;20183;-76
2022/08/24 10:41:39;;;;;;;5.03;2.45;;;30.70;99.90;;;;;;5074067;28;20182;-76
2022/08/24 10:44:27;;;;;;;5.47;2.33;;;30.70;99.90;;;;;;5061009;28;20273;-78
2022/08/24 10:47:27;;;;;;;9.50;2.72;;;30.80;99.90;;;;;;5115195;27;20182;-76
2022/08/24 10:50:13;;;;;;;10.75;2.55;;;30.80;99.90;;;;;;5077089;28;20216;-75
2022/08/24 10:53:13;;;;;;;11.55;2.72;;;30.50;99.90;;;;;;5081913;28;20182;-76
2022/08/24 10:55:40;;;;;;;12.07;2.58;;;30.60;99.90;;;;;;5083726;28;20179;-77
2022/08/24 10:58:33;;;;;;;10.60;2.30;;;30.60;99.90;;;;;;5077538;28;20178;-76
2022/08/24 11:01:27;;;;;;;17.08;2.85;;;30.60;99.90;;;;;;5089067;28;20673;-76
2022/08/24 11:03:59;;;;;;;11.20;2.70;;;30.40;99.90;;;;;;5098923;28;20220;-75
2022/08/24 11:06:34;;;;;;;8.30;2.42;;;30.30;99.90;;;;;;5079248;28;20192;-75
2022/08/24 11:09:15;;;;;;;5.70;2.22;;;30.30;99.90;;;;;;5085134;28;20255;-75
2022/08/24 11:11:48;;;;;;;10.80;2.83;;;30.20;99.90;;;;;;5053945;28;20229;-76
2022/08/24 11:14:32;;;;;;;6.63;2.17;;;30.30;99.90;;;;;;5124129;27;20182;-79
2022/08/24 11:17:19;;;;;;;10.38;2.50;;;30.20;99.90;;;;;;5122707;27;20546;-76
2022/08/24 11:19:51;;;;;;;10.98;2.28;;;30.10;99.90;;;;;;5069316;28;20181;-78
2022/08/24 11:22:56;;;;;;;11.73;2.35;;;30.20;99.90;;;;;;5072894;28;21021;-76
2022/08/24 11:25:28;;;;;;;124.50;82.15;;;30.10;99.90;;;;;;5070710;28;20191;-76
2022/08/24 11:28:33;;;;;;;14.60;4.70;;;30.20;99.90;;;;;;5060364;28;20260;-76
2022/08/24 11:31:00;;;;;;;8.13;2.45;;;30.20;99.90;;;;;;5092401;28;20577;-75
2022/08/24 11:33:33;;;;;;;9.95;2.25;;;30.00;99.90;;;;;;5092661;28;20190;-76
2022/08/24 11:36:01;;;;;;;8.60;2.13;;;30.00;99.90;;;;;;5082232;28;20259;-75
2022/08/24 11:38:33;;;;;;;8.77;2.25;;;29.90;99.90;;;;;;5060855;28;20202;-75
2022/08/24 11:41:07;;;;;;;15.77;2.55;;;29.90;99.90;;;;;;5077348;28;20221;-75
2022/08/24 11:44:19;;;;;;;10.15;2.25;;;30.00;99.90;;;;;;5088690;28;20208;-75
2022/08/24 11:47:13;;;;;;;6.97;2.00;;;30.10;99.90;;;;;;5058867;28;20189;-75
2022/08/24 11:50:05;;;;;;;7.22;2.30;;;30.20;99.90;;;;;;5102348;28;20183;-75
2022/08/24 11:53:06;;;;;;;5.22;2.13;;;30.10;99.90;;;;;;5081231;28;20514;-75
2022/08/24 11:56:09;;;;;;;9.15;2.75;;;30.10;99.90;;;;;;5099738;28;20970;-75
2022/08/24 11:58:54;;;;;;;7.35;2.05;;;30.10;99.90;;;;;;5073114;28;20186;-76
2022/08/24 12:02:03;;;;;;;6.70;2.20;;;30.20;99.90;;;;;;5123207;27;20178;-75
2022/08/24 12:05:02;;;;;;;7.53;1.83;;;30.10;99.90;;;;;;5020281;28;20249;-77
2022/08/24 12:07:53;;;;;;;8.02;1.92;;;30.00;99.90;;;;;;5083888;28;20217;-76
2022/08/24 12:11:22;;;;;;;5.18;1.48;;;30.00;99.90;;;;;;5070094;28;20213;-76
2022/08/24 12:14:20;;;;;;;5.88;1.80;;;30.10;99.90;;;;;;5077880;28;20193;-76
2022/08/24 12:17:05;;;;;;;5.53;1.73;;;30.20;99.90;;;;;;5052035;28;20668;-77
2022/08/24 12:19:45;;;;;;;4.05;1.80;;;30.10;99.90;;;;;;5094156;28;20218;-77
2022/08/24 12:22:15;;;;;;;7.70;1.90;;;30.10;99.90;;;;;;5109627;28;20821;-75
2022/08/24 12:24:54;;;;;;;5.60;1.75;;;30.10;99.90;;;;;;5096933;28;20547;-76
2022/08/24 12:27:36;;;;;;;8.05;1.90;;;30.10;99.90;;;;;;5070584;28;20182;-76
2022/08/24 12:30:15;;;;;;;7.20;1.90;;;30.20;99.90;;;;;;5087693;28;20174;-74
2022/08/24 12:32:56;;;;;;;6.75;1.77;;;30.10;99.90;;;;;;5089930;28;20182;-75
2022/08/24 12:35:54;;;;;;;7.35;1.63;;;30.00;99.90;;;;;;5085635;28;20263;-74
2022/08/24 12:38:41;;;;;;;11.90;1.75;;;30.10;99.90;;;;;;5074696;28;20204;-75
2022/08/24 12:41:30;;;;;;;6.30;1.70;;;30.20;99.90;;;;;;5086915;28;20209;-75
2022/08/24 12:44:15;;;;;;;5.72;1.80;;;30.10;99.90;;;;;;5087521;28;20274;-76
2022/08/24 12:46:43;;;;;;;5.57;1.60;;;30.00;99.90;;;;;;5080433;28;20199;-75
2022/08/24 12:49:21;;;;;;;5.30;1.80;;;29.90;99.90;;;;;;5080777;28;20245;-74
2022/08/24 12:52:41;;;;;;;5.00;1.40;;;30.00;99.90;;;;;;5077769;28;20190;-75
2022/08/24 12:55:22;;;;;;;4.45;1.67;;;30.10;99.90;;;;;;5087444;28;20185;-75
2022/08/24 12:58:06;;;;;;;5.35;1.60;;;29.90;99.90;;;;;;5081020;28;20278;-75
2022/08/24 13:00:44;;;;;;;5.35;1.90;;;29.90;99.90;;;;;;5061783;28;20182;-75
2022/08/24 13:03:37;;;;;;;10.48;1.88;;;29.90;99.90;;;;;;5091904;28;20194;-75
2022/08/24 13:06:37;;;;;;;6.25;1.60;;;29.90;99.90;;;;;;5072565;28;20194;-76
2022/08/24 13:09:34;;;;;;;5.85;1.25;;;30.10;99.90;;;;;;5080300;28;20206;-76
2022/08/24 13:12:29;;;;;;;6.30;1.58;;;29.90;99.90;;;;;;5080891;28;20214;-76
2022/08/24 13:15:29;;;;;;;4.82;1.60;;;30.00;99.90;;;;;;5086664;28;20227;-75
2022/08/24 13:18:08;;;;;;;9.40;2.20;;;29.80;99.90;;;;;;5102366;28;20722;-76
2022/08/24 13:20:49;;;;;;;4.35;1.27;;;29.90;99.90;;;;;;5101617;28;20188;-77
2022/08/24 13:23:23;;;;;;;5.68;1.45;;;29.80;99.90;;;;;;5071743;28;20190;-75
2022/08/24 13:26:19;;;;;;;3.67;1.33;;;29.80;99.90;;;;;;5081897;28;20940;-75
2022/08/24 13:28:53;;;;;;;3.70;1.58;;;29.80;99.90;;;;;;5087882;28;20210;-75
2022/08/24 13:31:31;;;;;;;5.72;1.92;;;29.80;99.90;;;;;;5045497;28;20183;-76
2022/08/24 13:34:10;;;;;;;6.55;1.42;;;29.90;99.90;;;;;;5067192;28;20198;-75